Rankin, IL (60960)

8:14 AM CDT on August 29, 2015 (GMT -0500)
Pilot Twp | | Change Station
CLOSE
Current Station
Personal Weather Station
Location: Potomac, IL
Elevation: 738 ft
Nearby Weather Stations

Elev 738 ft 40.26 °N, 87.88 °W | Updated 12 minutes ago

Overcast
Overcast
67.5 °F
Feels Like 67.5 °F
N
2.0
Wind Variable Wind from SSE
Gusts 8.0 mph

Today
High -- | Low -- °F
--% Chance of Precip.
Yesterday
High -- | Low -- °F
Precip. -- in
6:15 AM 7:28 PM
Full, 100% visible
Pressure 30.06 in
Visibility 7.0 miles
Clouds Scattered Clouds 12000 ft
Dew Point 64 °F
Humidity 88%
Rainfall 0.02 in
Snow Depth Not available.
UV 1 out of 12
Pollen 9.90 out of 12
Air Quality Not available.
Flu Activity Not available.
METAR KTIP 291255Z AUTO 16004KT 7SM SCT120 20/18 A3006 RMK AO2 LTG DSNT N T01950180
Pressure 30.06 in
Visibility 7.0 miles
Clouds Scattered Clouds 12000 ft
Dew Point 64 °F
Humidity 88%
Rainfall 0.02 in
Snow Depth Not available.
UV 1 out of 12
Pollen 9.90 out of 12
Air Quality Not available.
Flu Activity Not available.
METAR KTIP 291255Z AUTO 16004KT 7SM SCT120 20/18 A3006 RMK AO2 LTG DSNT N T01950180

10-Day Weather Forecast

×

Almanac

Astronomy

Aug. 29, 2015 Rise Set
Actual Time
Civil Twilight
Nautical Twilight
Astronomical Twilight
Moon
Length of Visible Light
Length of Day
Tomorrow will be .
, % of the Moon is Illuminated

Today's Extremes

State Highs State Lows

Community

WunderPhotos

Upload Photos

1,850,681 photos uploaded!

WunderBlogs® & News

Nearby

Air Quality

  Air Quality AQ Index Pollutant
Not available.

Snow Depth

Station Depth Elevation

Earthquake Activity

City Distance Mag. Time & Date
Minimum magnitude displayed is 2.5.

Coastal Water Temperatures

Place Temperature

Stations

Nearby Weather Stations

Station Location Temp. Windchill Dew Point Humidity Wind Precip. Elev Updated Type